createdAt,value
2023-11-21T15:58:04.595Z,96504.25
2023-11-21T16:03:20.244Z,96508.00
2023-11-21T16:06:05.837Z,96509.88
2023-11-21T16:11:37.749Z,96501.47
2023-11-21T16:14:23.995Z,96501.25
2023-11-21T16:20:14.472Z,96504.38
2023-11-21T16:23:00.330Z,96503.50
2023-11-21T16:25:46.383Z,96510.69
2023-11-21T16:31:58.472Z,96515.34
2023-11-21T16:34:44.561Z,96510.88
2023-11-21T16:37:30.396Z,96504.03
2023-11-21T16:40:16.230Z,96510.63
2023-11-21T16:43:02.155Z,96510.09
2023-11-21T16:45:48.151Z,96515.22
2023-11-21T16:48:34.545Z,96515.56
2023-11-21T16:51:20.665Z,96522.22
2023-11-21T16:54:06.724Z,96522.50
2023-11-21T16:56:52.743Z,96530.00
2023-11-21T16:59:38.746Z,96530.00
2023-11-21T17:02:24.566Z,96530.34
2023-11-21T17:05:10.447Z,96533.16
2023-11-21T17:07:56.513Z,96539.41
2023-11-21T17:10:42.905Z,96535.41
2023-11-21T17:13:28.611Z,96546.44
2023-11-21T17:16:14.523Z,96551.22
2023-11-21T17:19:00.426Z,96560.56
2023-11-21T17:21:46.210Z,96558.56
2023-11-21T17:24:32.103Z,96577.41
2023-11-21T17:27:18.004Z,96577.88
2023-11-21T17:30:03.905Z,96576.63
2023-11-21T17:32:50.419Z,96580.63
2023-11-21T17:35:36.450Z,96588.81
2023-11-21T17:38:22.495Z,96584.91
2023-11-21T17:41:08.374Z,96587.78
2023-11-21T17:43:54.192Z,96594.00
2023-11-21T17:46:40.677Z,96588.06
2023-11-21T17:49:29.306Z,96595.94
2023-11-21T17:52:16.025Z,96603.50
2023-11-21T17:55:01.925Z,96598.66
2023-11-21T17:57:47.940Z,96595.47
2023-11-21T18:00:33.807Z,96592.03
2023-11-21T18:03:19.813Z,96592.06
2023-11-21T18:06:05.680Z,96596.38
2023-11-21T18:08:51.679Z,96601.53
2023-11-21T18:11:37.703Z,96609.38
2023-11-21T18:14:24.049Z,96614.09
2023-11-21T18:17:10.005Z,96615.25
2023-11-21T18:19:56.292Z,96612.94
2023-11-21T18:22:42.113Z,96615.75
2023-11-21T18:25:28.060Z,96616.88
2023-11-21T20:20:21.429Z,96711.41
2023-11-21T20:23:07.508Z,96706.03
2023-11-21T20:25:53.519Z,96702.66
2023-11-21T20:28:39.481Z,96702.53
2023-11-21T20:31:25.485Z,96698.00
2023-11-21T20:34:11.561Z,96705.47
2023-11-21T20:36:57.398Z,96703.91
2023-11-21T20:39:43.267Z,96719.63
2023-11-21T20:46:45.233Z,96715.28
2023-11-21T20:50:48.533Z,96718.78
2023-11-21T20:53:37.172Z,96714.81
2023-11-21T20:56:25.454Z,96725.94
2023-11-21T20:59:14.145Z,96720.50
2023-11-21T21:02:02.822Z,96723.56
2023-11-21T21:04:50.896Z,96718.22
2023-11-21T21:07:38.859Z,96729.09
2023-11-21T21:10:27.314Z,96728.66
2023-11-21T21:13:18.932Z,96727.72
2023-11-21T21:16:07.436Z,96724.22
2023-11-21T21:18:56.697Z,96720.28
2023-11-21T21:21:45.518Z,96711.69
2023-11-21T21:24:34.287Z,96706.00
2023-11-21T21:27:23.359Z,96703.28
2023-11-21T21:30:12.024Z,96707.28
2023-11-21T21:33:01.756Z,96706.81
2023-11-21T21:35:50.066Z,96717.13
2023-11-21T21:38:40.708Z,96719.00
2023-11-21T21:41:30.811Z,96721.75
2023-11-21T21:44:18.771Z,96718.69
2023-11-21T21:47:11.353Z,96716.94
2023-11-21T21:50:01.327Z,96727.56
2023-11-21T21:52:49.706Z,96737.06
2023-11-21T21:55:37.938Z,96738.00
2023-11-21T21:58:27.558Z,96736.28
2023-11-21T22:01:15.684Z,96738.66
2023-11-21T22:04:07.333Z,96740.91
2023-11-21T22:06:55.582Z,96736.00
2023-11-21T22:09:43.614Z,96737.72
2023-11-21T22:12:31.385Z,96736.97
2023-11-21T22:15:19.178Z,96729.41
2023-11-21T22:18:07.163Z,96733.94
2023-11-21T22:20:55.423Z,96736.59
2023-11-21T22:23:43.231Z,96750.94
2023-11-21T22:26:31.125Z,96750.53
2023-11-21T22:29:19.195Z,96758.72
2023-11-21T22:32:07.279Z,96763.50
2023-11-21T22:34:55.190Z,96764.31
2023-11-21T22:37:43.111Z,96760.00
2023-11-21T22:40:30.986Z,96770.59
2023-11-21T22:43:18.865Z,96771.84
2023-11-21T22:46:09.697Z,96768.28
2023-11-21T22:48:58.405Z,96771.50
2023-11-21T22:51:46.867Z,96764.31
2023-11-21T22:54:34.762Z,96766.75
2023-11-21T22:57:23.251Z,96771.25
2023-11-21T23:00:22.103Z,96762.44
2023-11-21T23:03:10.257Z,96763.69
2023-11-21T23:05:58.669Z,96764.34
2023-11-21T23:10:19.750Z,96760.22
2023-11-21T23:13:09.521Z,96758.50
2023-11-21T23:15:57.904Z,96763.56
2023-11-21T23:18:50.846Z,96772.41
2023-11-21T23:21:39.148Z,96769.00
2023-11-21T23:24:26.976Z,96765.53
2023-11-21T23:27:14.869Z,96775.03
2023-11-21T23:30:02.614Z,96778.22
2023-11-21T23:32:50.753Z,96781.41
2023-11-21T23:35:40.141Z,96784.97
2023-11-21T23:38:27.960Z,96777.50
2023-11-21T23:41:17.694Z,96772.78
2023-11-21T23:44:06.078Z,96772.03
2023-11-21T23:46:54.234Z,96770.84
2023-11-21T23:49:42.750Z,96787.38
2023-11-21T23:52:30.632Z,96790.56
2023-11-21T23:55:19.715Z,96784.28
2023-11-21T23:58:09.542Z,96781.53
